Time;durP1;ratioP1;P1;durP2;ratioP2;P2;SDS_P1;SDS_P2;PMS_P1;PMS_P2;Temp;Humidity;BMP_temperature;BMP_pressure;BME280_temperature;BME280_humidity;BME280_pressure;Samples;Min_cycle;Max_cycle;Signal;HPM_P1;HPM_P2
2020/12/17 00:00:17;;;;;;;58.20;24.33;;;;;;;5.35;96.76;97845.22;5084367;28;20032;-62
2020/12/17 00:02:42;;;;;;;48.47;21.92;;;;;;;5.77;95.90;97907.81;5087817;28;20040;-63
2020/12/17 00:05:08;;;;;;;48.70;21.63;;;;;;;5.81;95.44;97898.59;5088330;28;20071;-63
2020/12/17 00:07:33;;;;;;;44.78;19.90;;;;;;;5.43;95.60;97853.50;5086850;28;20436;-62
2020/12/17 00:09:59;;;;;;;44.70;20.05;;;;;;;5.78;95.86;97903.91;5088363;28;20450;-63
2020/12/17 00:12:24;;;;;;;39.53;18.45;;;;;;;5.39;96.02;97837.97;5088272;28;20032;-62
2020/12/17 00:14:50;;;;;;;46.15;20.02;;;;;;;5.48;95.62;97860.78;5088350;28;20042;-62
2020/12/17 00:17:15;;;;;;;47.22;18.83;;;;;;;5.28;96.56;97850.38;5087646;28;20604;-63
2020/12/17 00:19:41;;;;;;;43.25;18.98;;;;;;;5.16;97.88;97864.69;5086598;28;20032;-63
2020/12/17 00:22:06;;;;;;;46.25;19.67;;;;;;;5.38;98.46;97899.53;5088423;28;20028;-63
2020/12/17 00:24:32;;;;;;;44.20;19.65;;;;;;;5.35;98.92;97900.16;5087991;28;20483;-64
2020/12/17 00:26:57;;;;;;;46.83;20.52;;;;;;;5.14;99.68;97871.63;5087771;28;20050;-63
2020/12/17 00:29:22;;;;;;;51.80;23.05;;;;;;;5.39;99.22;97901.16;5088016;28;20030;-63
2020/12/17 00:31:51;;;;;;;50.85;22.88;;;;;;;5.14;99.65;97886.16;5086410;28;20047;-63
2020/12/17 00:34:17;;;;;;;48.15;20.85;;;;;;;5.16;100.00;97903.13;5087787;28;20074;-63
2020/12/17 00:36:43;;;;;;;48.33;20.73;;;;;;;4.68;100.00;97837.13;5087679;28;20443;-63
2020/12/17 00:39:09;;;;;;;48.60;22.80;;;;;;;5.26;100.00;97904.81;5081239;28;20089;-63
2020/12/17 00:41:36;;;;;;;51.33;23.00;;;;;;;4.79;100.00;97809.44;5067060;28;20070;-63
2020/12/17 00:44:01;;;;;;;61.08;27.23;;;;;;;4.93;100.00;97821.13;5079696;28;20047;-63
2020/12/17 00:46:27;;;;;;;36.13;17.65;;;;;;;5.18;99.88;97872.63;5087753;28;20036;-63
2020/12/17 00:48:53;;;;;;;54.42;22.00;;;;;;;5.32;100.00;97884.31;5087669;28;20489;-62
2020/12/17 00:51:19;;;;;;;43.63;19.42;;;;;;;4.96;99.68;97825.97;5087237;28;20533;-64
2020/12/17 00:53:45;;;;;;;44.45;20.77;;;;;;;5.09;99.26;97830.59;5087483;28;20032;-64
2020/12/17 00:56:10;;;;;;;49.08;21.02;;;;;;;5.18;99.09;97839.66;5087138;28;20039;-61
2020/12/17 00:58:36;;;;;;;41.75;19.08;;;;;;;5.13;98.40;97837.03;5087566;28;20028;-63
2020/12/17 01:01:08;;;;;;;48.15;20.38;;;;;;;4.71;97.96;97763.53;5086942;28;20052;-64
2020/12/17 01:03:34;;;;;;;41.88;18.92;;;;;;;4.81;98.61;97790.69;5086067;28;20508;-63
2020/12/17 01:05:59;;;;;;;39.58;19.08;;;;;;;4.71;98.93;97763.53;5085613;28;20036;-63
2020/12/17 01:08:25;;;;;;;43.88;18.52;;;;;;;5.16;97.97;97847.41;5087441;28;21096;-63
2020/12/17 01:10:50;;;;;;;46.08;21.08;;;;;;;5.45;98.27;97866.94;5087141;28;20032;-63
2020/12/17 01:13:16;;;;;;;43.25;20.42;;;;;;;5.62;98.45;97897.22;5086563;28;20039;-63
2020/12/17 01:15:41;;;;;;;35.35;17.25;;;;;;;5.45;97.85;97856.75;5084965;28;20652;-63
2020/12/17 01:18:06;;;;;;;39.08;17.30;;;;;;;5.48;98.03;97877.28;5087076;28;20032;-61
2020/12/17 01:20:32;;;;;;;32.97;16.48;;;;;;;4.82;97.88;97806.84;5086909;28;20047;-61
2020/12/17 01:22:57;;;;;;;52.22;23.63;;;;;;;5.19;97.90;97860.50;5087032;28;20036;-63
2020/12/17 01:25:23;;;;;;;40.85;18.55;;;;;;;5.38;98.97;97883.03;5087014;28;20043;-62
2020/12/17 01:27:48;;;;;;;31.92;17.05;;;;;;;5.07;98.36;97832.81;5085299;28;20089;-62
2020/12/17 01:30:14;;;;;;;47.03;19.75;;;;;;;5.18;97.76;97847.91;5086758;28;20046;-63
2020/12/17 01:32:39;;;;;;;36.13;16.17;;;;;;;5.27;98.00;97871.53;5086801;28;20032;-62
2020/12/17 01:35:05;;;;;;;38.15;16.35;;;;;;;5.36;99.20;97879.81;5086731;28;20503;-63
2020/12/17 01:37:30;;;;;;;33.35;16.42;;;;;;;5.05;98.40;97824.09;5086660;28;20472;-62
2020/12/17 01:39:55;;;;;;;31.55;14.65;;;;;;;4.91;98.50;97795.91;5086318;28;20120;-62
2020/12/17 01:42:21;;;;;;;34.78;15.35;;;;;;;4.94;97.35;97800.78;5086551;28;20157;-62
2020/12/17 01:44:47;;;;;;;31.02;15.88;;;;;;;5.11;97.64;97851.09;5086501;28;20102;-62
2020/12/17 01:47:12;;;;;;;51.05;22.98;;;;;;;5.06;97.17;97817.50;5070354;28;20032;-62
2020/12/17 01:49:39;;;;;;;41.28;17.58;;;;;;;5.11;96.59;97834.63;5064478;28;20430;-62
2020/12/17 01:52:04;;;;;;;39.08;18.75;;;;;;;4.64;96.71;97755.75;5066155;28;20771;-62
2020/12/17 01:54:30;;;;;;;43.50;19.17;;;;;;;4.96;97.17;97836.97;5065935;28;20032;-63
2020/12/17 01:57:01;;;;;;;40.08;18.88;;;;;;;5.06;97.44;97842.19;5064357;28;20052;-63
2020/12/17 01:59:29;;;;;;;32.83;16.48;;;;;;;5.31;96.95;97863.47;5065906;28;20097;-62
2020/12/17 02:01:55;;;;;;;37.65;17.38;;;;;;;5.03;97.35;97837.31;5065783;28;20098;-62
2020/12/17 02:04:22;;;;;;;37.72;18.05;;;;;;;4.98;97.69;97807.28;5065751;28;20036;-63
2020/12/17 02:06:48;;;;;;;43.60;19.90;;;;;;;5.35;97.81;97880.94;5065810;28;20040;-63
2020/12/17 02:09:15;;;;;;;39.85;16.83;;;;;;;5.30;97.54;97883.81;5065563;28;20102;-62
2020/12/17 02:11:41;;;;;;;39.08;17.50;;;;;;;5.19;97.19;97879.72;5081150;28;20560;-62
2020/12/17 02:14:06;;;;;;;33.72;16.67;;;;;;;4.95;97.74;97829.88;5080769;28;20490;-62
2020/12/17 02:16:32;;;;;;;26.08;12.93;;;;;;;4.80;97.24;97811.84;5065340;28;20041;-63
2020/12/17 02:18:57;;;;;;;30.92;14.35;;;;;;;5.25;96.73;97873.00;5065397;28;20519;-62
2020/12/17 02:21:23;;;;;;;37.05;18.23;;;;;;;5.32;97.57;97882.38;5065189;28;20036;-62
2020/12/17 02:23:49;;;;;;;38.03;17.50;;;;;;;5.40;97.18;97869.81;5063083;28;20047;-62
2020/12/17 02:26:14;;;;;;;31.88;14.88;;;;;;;5.06;96.59;97825.72;5063276;28;20090;-62
2020/12/17 02:28:41;;;;;;;35.53;17.05;;;;;;;5.37;96.50;97875.94;5065725;28;20032;-62
2020/12/17 02:31:06;;;;;;;36.70;17.70;;;;;;;5.17;97.25;97855.31;5065652;28;20040;-62
2020/12/17 02:33:32;;;;;;;32.47;16.25;;;;;;;4.82;97.51;97790.38;5063837;28;20039;-63
2020/12/17 02:35:57;;;;;;;33.03;14.07;;;;;;;5.06;97.31;97815.53;5065515;28;20044;-63
2020/12/17 02:38:24;;;;;;;28.30;13.68;;;;;;;5.40;96.99;97869.81;5065499;28;20031;-63
2020/12/17 02:40:50;;;;;;;25.77;12.48;;;;;;;5.11;96.74;97828.31;5064907;28;20556;-63
2020/12/17 02:43:16;;;;;;;22.60;11.55;;;;;;;5.17;97.00;97838.06;5068680;28;20491;-63
2020/12/17 02:45:49;;;;;;;23.88;12.32;;;;;;;5.47;96.87;97875.66;5084231;28;20046;-63
2020/12/17 02:48:15;;;;;;;21.70;11.02;;;;;;;5.09;94.38;97800.38;5085758;28;20032;-62
2020/12/17 02:50:42;;;;;;;24.98;11.98;;;;;;;5.16;94.86;97837.22;5083666;28;20044;-63
2020/12/17 02:53:08;;;;;;;22.60;10.60;;;;;;;5.19;94.38;97835.78;5085501;28;20050;-63
2020/12/17 02:55:35;;;;;;;18.95;9.75;;;;;;;5.46;94.52;97868.53;5084861;28;20031;-62
2020/12/17 02:58:00;;;;;;;20.00;9.93;;;;;;;5.34;95.30;97838.13;5085259;28;20187;-61
2020/12/17 03:00:25;;;;;;;20.90;10.07;;;;;;;5.16;95.16;97826.25;5085153;28;20642;-62
2020/12/17 03:02:51;;;;;;;21.85;10.13;;;;;;;5.48;95.59;97867.13;5084932;28;20075;-63
2020/12/17 03:05:17;;;;;;;27.27;13.10;;;;;;;5.36;95.01;97864.13;5084906;28;20024;-62
2020/12/17 03:07:42;;;;;;;59.28;29.85;;;;;;;5.25;93.82;97837.28;5084904;28;20039;-62
2020/12/17 03:10:12;;;;;;;72.95;33.20;;;;;;;5.43;93.56;97864.50;5084408;28;20046;-63
2020/12/17 03:12:39;;;;;;;54.92;25.23;;;;;;;5.40;95.09;97886.28;5084846;28;20127;-63
2020/12/17 03:15:05;;;;;;;36.50;18.88;;;;;;;5.31;95.65;97866.22;5084763;28;20036;-63
2020/12/17 03:17:30;;;;;;;33.80;16.67;;;;;;;5.40;96.40;97875.31;5084250;28;20038;-62
2020/12/17 03:19:56;;;;;;;29.70;14.10;;;;;;;5.41;96.93;97894.22;5083169;28;20039;-62
2020/12/17 03:22:21;;;;;;;46.28;23.35;;;;;;;5.30;97.06;97870.06;5084325;28;20522;-62
2020/12/17 03:24:46;;;;;;;48.45;25.63;;;;;;;5.06;96.50;97826.50;5084972;28;20304;-62
2020/12/17 03:27:12;;;;;;;39.28;21.40;;;;;;;5.42;96.21;97881.31;5084516;28;20034;-62
2020/12/17 03:29:37;;;;;;;23.85;11.75;;;;;;;5.35;96.61;97894.66;5084660;28;20504;-62
2020/12/17 03:32:02;;;;;;;25.80;10.57;;;;;;;5.25;97.17;97882.00;5084498;28;20044;-63
2020/12/17 03:34:29;;;;;;;19.48;9.73;;;;;;;5.01;96.84;97845.06;5084770;28;20164;-62
2020/12/17 03:36:55;;;;;;;23.58;12.35;;;;;;;4.99;96.06;97842.66;5083200;28;20466;-62
2020/12/17 03:39:20;;;;;;;27.27;12.98;;;;;;;5.12;95.99;97846.41;5084827;28;20086;-63
2020/12/17 03:41:45;;;;;;;21.70;11.25;;;;;;;4.90;96.06;97817.06;5084570;28;20089;-62
2020/12/17 03:44:11;;;;;;;23.95;12.65;;;;;;;4.83;96.54;97807.66;5082912;28;20119;-63
2020/12/17 03:46:36;;;;;;;18.02;9.43;;;;;;;5.18;96.25;97889.09;5083314;28;20024;-62
2020/12/17 03:49:03;;;;;;;19.95;10.18;;;;;;;5.15;98.10;97885.06;5084289;28;20435;-63
2020/12/17 03:51:28;;;;;;;20.35;9.25;;;;;;;4.80;97.29;97827.50;5084267;28;20052;-62
2020/12/17 03:53:54;;;;;;;19.23;9.68;;;;;;;5.16;97.89;97880.34;5099886;28;20109;-62
2020/12/17 03:56:19;;;;;;;18.10;8.75;;;;;;;4.72;97.48;97809.06;5084347;28;20039;-61
2020/12/17 03:58:45;;;;;;;21.13;9.60;;;;;;;5.11;98.27;97883.22;5084690;28;20031;-62
2020/12/17 04:01:10;;;;;;;20.83;9.82;;;;;;;4.81;98.03;97829.13;5084002;28;20051;-61
2020/12/17 04:03:35;;;;;;;22.52;10.60;;;;;;;5.17;98.23;97882.00;5084400;28;20028;-61
2020/12/17 04:06:01;;;;;;;23.00;11.07;;;;;;;5.13;96.71;97881.81;5084369;28;20036;-63
2020/12/17 04:08:26;;;;;;;30.65;13.90;;;;;;;5.09;98.46;97885.50;5084393;28;20025;-63
2020/12/17 04:10:51;;;;;;;27.83;12.02;;;;;;;4.91;98.61;97867.28;5084297;28;20463;-62
2020/12/17 04:13:17;;;;;;;25.02;11.13;;;;;;;5.05;98.64;97887.22;5084375;28;20081;-62
2020/12/17 04:15:42;;;;;;;17.85;8.40;;;;;;;5.09;96.96;97888.25;5084129;28;20028;-62
2020/12/17 04:18:08;;;;;;;18.13;9.73;;;;;;;5.02;98.83;97874.13;5099545;28;20554;-62
2020/12/17 04:20:33;;;;;;;21.13;10.02;;;;;;;4.58;99.30;97823.66;5084084;28;20561;-63
2020/12/17 04:22:59;;;;;;;23.55;12.00;;;;;;;4.91;98.80;97856.31;5084190;28;20036;-63
2020/12/17 04:25:24;;;;;;;31.60;12.77;;;;;;;4.98;96.92;97859.44;5084263;28;20047;-62
2020/12/17 04:27:50;;;;;;;25.42;12.23;;;;;;;4.74;97.53;97813.13;5084276;28;20032;-62
2020/12/17 04:30:15;;;;;;;23.67;10.65;;;;;;;4.86;97.26;97837.22;5084048;28;20032;-62
2020/12/17 04:32:40;;;;;;;35.35;14.30;;;;;;;4.69;96.60;97803.06;5083898;28;20613;-62
2020/12/17 04:35:06;;;;;;;35.55;16.02;;;;;;;5.16;97.35;97891.34;5083381;28;20554;-63
2020/12/17 04:37:31;;;;;;;38.67;16.10;;;;;;;4.64;97.40;97810.63;5084215;28;20081;-63
2020/12/17 04:39:57;;;;;;;24.02;11.10;;;;;;;4.94;98.23;97867.47;5084095;28;20044;-63
2020/12/17 04:42:23;;;;;;;20.55;10.45;;;;;;;5.14;97.81;97899.09;5084048;28;20113;-63
2020/12/17 04:44:51;;;;;;;24.63;12.65;;;;;;;4.78;97.82;97848.94;5084051;28;20028;-63
2020/12/17 04:47:20;;;;;;;29.70;16.30;;;;;;;4.74;97.65;97857.03;5084850;28;20032;-64
2020/12/17 04:49:51;;;;;;;42.08;21.02;;;;;;;3.25;96.84;97578.16;5087402;28;20032;-63
2020/12/17 04:52:18;;;;;;;39.85;22.50;;;;;;;5.19;97.58;97896.19;5087584;28;20414;-62
2020/12/17 04:54:44;;;;;;;41.47;23.50;;;;;;;4.93;97.08;97854.06;5087840;28;20032;-63
2020/12/17 04:57:14;;;;;;;35.20;18.60;;;;;;;5.23;96.90;97905.44;5086920;28;20036;-62
2020/12/17 04:59:46;;;;;;;38.70;22.10;;;;;;;5.29;97.01;97895.94;5087420;28;20039;-63
2020/12/17 05:02:14;;;;;;;27.88;15.27;;;;;;;5.35;95.74;97900.16;5085224;28;20131;-62
2020/12/17 05:04:41;;;;;;;23.50;12.73;;;;;;;5.20;96.42;97875.88;5086922;28;20084;-63
2020/12/17 05:07:11;;;;;;;25.10;14.57;;;;;;;5.32;97.29;97892.56;5086717;28;20032;-62
2020/12/17 05:09:37;;;;;;;27.08;13.50;;;;;;;5.36;95.64;97894.34;5085468;28;20047;-62
2020/12/17 05:12:04;;;;;;;40.72;19.17;;;;;;;5.02;96.06;97841.19;5087023;28;20094;-63
2020/12/17 05:14:29;;;;;;;36.17;18.35;;;;;;;5.17;96.47;97876.50;5087139;28;20401;-63
2020/12/17 05:16:56;;;;;;;44.33;21.40;;;;;;;5.24;95.88;97876.84;5102533;28;20073;-63
2020/12/17 05:19:25;;;;;;;37.15;17.38;;;;;;;5.17;96.48;97868.25;5086947;28;20067;-62
2020/12/17 05:21:57;;;;;;;33.60;17.70;;;;;;;5.37;96.32;97897.91;5087015;28;20085;-63
2020/12/17 05:24:26;;;;;;;50.70;27.13;;;;;;;5.34;96.78;97898.56;5086901;28;20036;-62
2020/12/17 05:26:53;;;;;;;24.05;12.48;;;;;;;5.38;97.05;97916.00;5086966;28;20038;-64
2020/12/17 05:29:19;;;;;;;29.90;14.55;;;;;;;5.39;96.20;97906.66;5085221;28;20044;-63
2020/12/17 05:31:46;;;;;;;31.05;14.52;;;;;;;5.40;95.97;97905.53;5070885;28;20032;-62
2020/12/17 05:34:12;;;;;;;31.75;14.20;;;;;;;5.12;96.08;97862.91;5066462;28;20038;-62
2020/12/17 05:36:40;;;;;;;29.25;14.45;;;;;;;5.37;95.69;97908.91;5067130;28;20090;-63
2020/12/17 05:39:13;;;;;;;29.25;12.95;;;;;;;5.43;95.32;97907.63;5066601;28;20033;-62
2020/12/17 05:41:40;;;;;;;28.67;11.82;;;;;;;5.47;95.52;97908.66;5066014;28;20052;-63
2020/12/17 05:44:13;;;;;;;23.98;9.35;;;;;;;5.35;95.86;97878.19;5071874;28;20556;-63
2020/12/17 05:46:40;;;;;;;;;;;;;;;5.57;94.66;97905.59;5086726;28;20035;-62
2020/12/17 05:49:22;;;;;;;159.07;50.75;;;;;;;5.49;95.62;97909.13;5086594;28;19998;-63
2020/12/17 05:51:49;;;;;;;37.70;19.00;;;;;;;5.49;95.00;97912.69;5086287;28;20078;-63
2020/12/17 05:54:25;;;;;;;34.55;17.40;;;;;;;5.50;94.27;97897.03;5086389;28;20114;-63
2020/12/17 05:57:05;;;;;;;41.13;22.55;;;;;;;5.16;94.27;97858.38;5086146;28;20085;-62
2020/12/17 05:59:30;;;;;;;47.53;23.17;;;;;;;5.48;94.21;97919.31;5086050;28;20039;-63
2020/12/17 06:01:56;;;;;;;33.40;17.20;;;;;;;5.12;94.97;97884.88;5084559;28;20032;-62
2020/12/17 06:04:21;;;;;;;44.67;23.40;;;;;;;5.39;94.15;97912.94;5086044;28;20383;-63
2020/12/17 06:06:48;;;;;;;41.80;20.00;;;;;;;5.40;94.08;97911.84;5085915;28;20032;-63
2020/12/17 06:09:20;;;;;;;36.00;17.05;;;;;;;5.29;93.72;97873.97;5084413;28;20127;-62
2020/12/17 06:11:47;;;;;;;33.85;16.65;;;;;;;5.64;94.19;97925.19;5085818;28;20068;-61
2020/12/17 06:14:13;;;;;;;26.75;14.73;;;;;;;5.57;93.81;97916.59;5086181;28;20043;-62
2020/12/17 06:16:42;;;;;;;24.98;14.82;;;;;;;3.71;93.09;97614.25;5085653;28;20044;-60
2020/12/17 06:19:12;;;;;;;33.15;18.88;;;;;;;5.65;93.33;97913.06;5084060;28;20028;-60
2020/12/17 06:21:40;;;;;;;34.80;17.40;;;;;;;4.91;92.80;97806.91;5065363;28;20183;-60
2020/12/17 06:24:06;;;;;;;29.88;16.33;;;;;;;5.50;91.59;97902.50;5064161;28;20065;-61
2020/12/17 06:26:39;;;;;;;34.85;19.33;;;;;;;5.45;91.71;97916.38;5065161;28;20117;-60
2020/12/17 06:29:15;;;;;;;;;;;;;;;5.79;92.53;97949.50;5066153;28;20157;-60
2020/12/17 06:31:54;;;;;;;34.03;16.63;;;;;;;5.66;92.96;97936.66;5065342;28;19920;-62
2020/12/17 06:34:20;;;;;;;30.73;15.93;;;;;;;5.52;92.14;97911.22;5065648;28;20493;-61
2020/12/17 06:36:49;;;;;;;35.90;17.95;;;;;;;5.89;90.65;97955.59;5065101;28;20041;-61
2020/12/17 06:39:14;;;;;;;31.55;16.33;;;;;;;5.64;91.11;97925.19;5065446;28;20131;-61
2020/12/17 06:41:40;;;;;;;58.55;26.20;;;;;;;5.77;90.21;97941.56;5077985;28;20178;-61
2020/12/17 06:44:32;;;;;;;50.80;22.52;;;;;;;5.88;89.66;97964.16;5070203;28;20039;-59
2020/12/17 06:47:00;;;;;;;62.85;29.20;;;;;;;5.47;90.31;97903.16;5084490;28;20028;-58
2020/12/17 06:49:27;;;;;;;234.18;66.68;;;;;;;5.22;90.91;97868.91;5084442;28;20115;-59
2020/12/17 06:52:09;;;;;;;128.32;44.80;;;;;;;5.79;91.34;97971.50;5084985;28;20052;-59
2020/12/17 06:54:38;;;;;;;33.75;15.82;;;;;;;5.76;91.37;97977.63;5085081;28;20563;-60
2020/12/17 06:57:18;;;;;;;33.33;16.27;;;;;;;5.79;90.63;97972.31;5064749;28;20041;-59
2020/12/17 07:00:05;;;;;;;30.38;15.38;;;;;;;5.51;90.30;97926.09;5065117;28;20028;-59
2020/12/17 07:02:41;;;;;;;61.15;22.65;;;;;;;5.48;89.88;97904.75;5073209;28;20048;-62
2020/12/17 07:05:06;;;;;;;45.53;20.02;;;;;;;5.65;90.65;97935.06;5070083;28;20033;-62
2020/12/17 07:07:44;;;;;;;40.53;20.30;;;;;;;5.59;90.56;97901.41;5095643;28;20036;-60
2020/12/17 07:10:26;;;;;;;62.17;29.88;;;;;;;5.50;91.93;97930.78;5087337;28;20165;-61
2020/12/17 07:12:52;;;;;;;41.65;20.15;;;;;;;5.91;91.67;97958.00;5083451;28;20043;-59
2020/12/17 07:15:37;;;;;;;66.05;31.98;;;;;;;5.88;91.51;97939.41;5100391;28;20398;-62
2020/12/17 07:18:23;;;;;;;64.55;30.05;;;;;;;5.90;91.51;97948.94;5084751;28;20024;-61
2020/12/17 07:21:02;;;;;;;64.88;29.50;;;;;;;6.01;90.25;97969.53;5084200;28;20036;-60
2020/12/17 07:23:35;;;;;;;49.17;23.65;;;;;;;5.99;90.29;97971.78;5073721;28;20028;-61
2020/12/17 07:26:14;;;;;;;42.25;20.67;;;;;;;5.64;91.49;97925.19;5085277;28;20321;-60
2020/12/17 07:28:40;;;;;;;50.80;25.15;;;;;;;5.63;91.09;97912.56;5085208;28;20040;-63
2020/12/17 07:31:06;;;;;;;44.33;21.33;;;;;;;6.02;89.50;97943.63;5084211;28;20024;-66
2020/12/17 07:33:42;;;;;;;35.28;18.80;;;;;;;6.08;89.88;97971.81;5079499;28;20036;-61
2020/12/17 07:36:09;;;;;;;33.53;18.52;;;;;;;5.94;89.63;97929.88;5062858;28;20036;-61
2020/12/17 07:38:35;;;;;;;36.50;19.05;;;;;;;6.11;90.69;97957.41;5061532;28;20650;-63
2020/12/17 07:41:03;;;;;;;37.15;19.58;;;;;;;5.92;89.18;97907.38;5059703;28;20458;-59
2020/12/17 07:43:42;;;;;;;35.55;19.77;;;;;;;6.09;89.76;97959.66;5045307;28;20093;-59
2020/12/17 07:46:08;;;;;;;36.72;17.48;;;;;;;5.43;90.06;97844.44;5049882;28;20040;-58
2020/12/17 07:48:47;;;;;;;46.75;21.33;;;;;;;6.25;90.09;97969.09;5065317;28;20126;-59
2020/12/17 07:51:13;;;;;;;39.05;18.08;;;;;;;6.24;89.54;97964.75;5065294;28;20140;-59
2020/12/17 07:53:40;;;;;;;42.63;21.23;;;;;;;6.20;88.34;97965.72;5066793;28;20039;-60
2020/12/17 07:56:09;;;;;;;59.42;26.40;;;;;;;3.05;87.87;97450.03;5064676;28;20464;-61
2020/12/17 07:58:35;;;;;;;28.52;14.50;;;;;;;6.34;88.17;97966.38;5066124;28;20032;-57
2020/12/17 08:01:02;;;;;;;25.55;13.45;;;;;;;6.42;86.99;97973.84;5054700;28;21021;-56
2020/12/17 08:03:28;;;;;;;25.00;12.65;;;;;;;4.66;87.23;97757.03;5046511;28;20037;-63
2020/12/17 08:06:04;;;;;;;26.23;14.02;;;;;;;5.80;87.37;97896.16;5044335;28;20036;-57
2020/12/17 08:08:30;;;;;;;53.55;27.60;;;;;;;5.97;87.31;97891.53;5054408;28;20047;-67
2020/12/17 08:10:55;;;;;;;21.67;10.80;;;;;;;5.70;86.09;97866.22;5064045;28;20028;-64
2020/12/17 08:13:21;;;;;;;20.50;9.65;;;;;;;5.81;87.14;97930.75;5065291;28;20336;-62
2020/12/17 08:15:57;;;;;;;20.13;10.27;;;;;;;5.74;87.81;97908.41;5064376;28;20040;-61
2020/12/17 08:18:27;;;;;;;21.42;9.30;;;;;;;6.01;88.72;97974.19;5064181;28;20589;-60
2020/12/17 08:21:05;;;;;;;22.98;10.70;;;;;;;5.75;87.75;97918.28;5043040;28;20047;-59
2020/12/17 08:23:32;;;;;;;23.33;11.32;;;;;;;5.54;88.55;97909.81;5048955;28;20032;-61
2020/12/17 08:26:01;;;;;;;25.65;12.50;;;;;;;6.08;89.62;97958.06;5060972;28;20081;-59
2020/12/17 08:28:29;;;;;;;23.40;11.82;;;;;;;4.94;90.03;97828.22;5068569;28;20039;-61
2020/12/17 08:31:11;;;;;;;24.55;11.55;;;;;;;5.05;92.72;97928.41;5068673;28;20044;-60
2020/12/17 08:33:45;;;;;;;27.45;12.65;;;;;;;5.45;93.54;97954.84;5068934;28;20044;-59
2020/12/17 08:36:13;;;;;;;24.10;11.75;;;;;;;5.26;92.05;97904.81;5068921;28;20501;-59
2020/12/17 08:38:40;;;;;;;26.95;13.82;;;;;;;5.75;92.00;97976.00;5068389;28;20532;-64
2020/12/17 08:41:07;;;;;;;24.75;12.88;;;;;;;5.78;91.26;97945.16;5066237;28;20042;-60
2020/12/17 08:43:43;;;;;;;20.90;10.25;;;;;;;5.40;89.57;97902.78;5069660;28;20506;-60
2020/12/17 08:46:14;;;;;;;27.08;12.18;;;;;;;5.23;93.75;97927.41;5067290;28;20467;-58
2020/12/17 08:48:40;;;;;;;28.10;13.55;;;;;;;5.23;93.46;97891.72;5068858;28;20509;-59
2020/12/17 08:51:10;;;;;;;28.45;13.60;;;;;;;5.52;91.87;97946.94;5068480;28;20521;-60
2020/12/17 08:53:40;;;;;;;21.73;11.25;;;;;;;5.39;91.25;97895.69;5068351;28;20067;-60
2020/12/17 08:56:11;;;;;;;24.33;11.88;;;;;;;5.98;90.66;97958.34;5067730;28;20039;-61
2020/12/17 08:58:48;;;;;;;28.23;15.00;;;;;;;5.91;89.33;97927.75;5052706;28;20040;-61
2020/12/17 09:01:25;;;;;;;30.67;15.30;;;;;;;5.82;90.34;97916.72;5067747;28;20463;-63
2020/12/17 09:03:51;;;;;;;23.60;11.55;;;;;;;5.41;92.87;97965.66;5050251;28;20578;-60
2020/12/17 09:06:26;;;;;;;23.60;11.48;;;;;;;4.94;95.03;97914.16;5049022;28;20033;-62
2020/12/17 09:08:52;;;;;;;23.92;12.60;;;;;;;5.06;94.22;97935.56;5049511;28;20035;-63
2020/12/17 09:11:31;;;;;;;27.05;12.75;;;;;;;5.34;95.52;97959.00;5067698;28;20036;-60
2020/12/17 09:14:01;;;;;;;23.13;11.15;;;;;;;4.96;94.58;97902.84;5061108;28;20051;-60
2020/12/17 09:16:28;;;;;;;38.85;21.27;;;;;;;5.51;94.90;97953.59;5065817;28;20055;-60
2020/12/17 09:18:59;;;;;;;20.85;10.18;;;;;;;5.03;93.80;97903.19;5066667;28;20036;-59
2020/12/17 09:21:26;;;;;;;33.40;16.35;;;;;;;5.60;93.42;97935.19;5062295;28;20473;-57
2020/12/17 09:23:56;;;;;;;34.40;16.48;;;;;;;5.25;92.78;97856.50;5067903;28;20162;-60
2020/12/17 09:26:22;;;;;;;34.33;16.88;;;;;;;5.92;91.42;97899.13;5086045;28;20039;-60
2020/12/17 09:28:49;;;;;;;34.17;16.45;;;;;;;5.96;90.45;97905.59;5086387;28;20434;-62
2020/12/17 09:31:19;;;;;;;31.67;14.20;;;;;;;6.36;89.85;97948.41;5086210;28;20044;-59
2020/12/17 09:33:44;;;;;;;32.88;18.50;;;;;;;6.01;87.80;97870.53;5080987;28;20059;-58
2020/12/17 09:36:16;;;;;;;28.73;17.40;;;;;;;6.53;87.87;97940.19;5085512;28;20383;-60
2020/12/17 09:38:42;;;;;;;24.70;11.82;;;;;;;5.90;89.18;97951.69;5086446;28;20554;-60
2020/12/17 09:41:08;;;;;;;30.75;16.30;;;;;;;5.73;92.20;97940.59;5084071;28;20192;-60
2020/12/17 09:43:33;;;;;;;57.53;32.85;;;;;;;6.24;91.08;97956.50;5086910;28;20028;-59
2020/12/17 09:45:59;;;;;;;29.95;14.80;;;;;;;6.28;88.66;97938.19;5087073;28;20087;-60
2020/12/17 09:48:30;;;;;;;30.85;15.90;;;;;;;6.25;88.74;97916.84;5086705;28;20032;-59
2020/12/17 09:51:01;;;;;;;40.83;21.20;;;;;;;6.21;88.17;97913.13;5086315;28;20055;-59
2020/12/17 09:53:29;;;;;;;31.05;18.63;;;;;;;6.47;87.02;97957.16;5086398;28;20085;-60
2020/12/17 09:55:55;;;;;;;60.58;30.25;;;;;;;6.45;87.72;97949.22;5086450;28;20557;-60
2020/12/17 09:58:21;;;;;;;47.05;24.40;;;;;;;6.24;87.93;97911.66;5067487;28;20166;-62
2020/12/17 10:00:46;;;;;;;30.85;16.98;;;;;;;6.04;87.57;97866.31;5065421;28;20096;-61
2020/12/17 10:03:12;;;;;;;27.77;15.98;;;;;;;6.00;87.02;97857.09;5081376;28;20041;-60
2020/12/17 10:05:39;;;;;;;30.25;18.00;;;;;;;6.40;87.69;97938.41;5066222;28;20059;-62
2020/12/17 10:08:04;;;;;;;28.65;14.55;;;;;;;5.68;86.78;97788.75;5065732;28;20040;-60
2020/12/17 10:10:30;;;;;;;29.30;15.40;;;;;;;6.64;86.39;97916.72;5063817;28;20059;-63
2020/12/17 10:12:58;;;;;;;29.40;16.27;;;;;;;6.46;87.93;97931.59;5065886;28;20028;-59
2020/12/17 10:15:30;;;;;;;26.35;14.85;;;;;;;6.62;87.77;97924.50;5065635;28;20103;-59
2020/12/17 10:17:56;;;;;;;18.63;11.05;;;;;;;6.62;85.89;97923.69;5076632;28;20333;-58
2020/12/17 10:20:24;;;;;;;29.52;14.75;;;;;;;6.27;86.98;97873.31;5085539;28;20523;-60
2020/12/17 10:22:50;;;;;;;23.40;11.93;;;;;;;6.60;84.82;97888.22;5085468;28;20036;-59
2020/12/17 10:25:17;;;;;;;16.77;9.93;;;;;;;5.95;85.89;97858.06;5100497;28;20032;-59
2020/12/17 10:27:42;;;;;;;20.00;9.85;;;;;;;5.52;89.59;97878.25;5084064;28;20044;-57
2020/12/17 10:30:08;;;;;;;23.58;10.95;;;;;;;5.24;92.49;97871.34;5085012;28;20035;-59
2020/12/17 10:32:34;;;;;;;20.20;10.25;;;;;;;4.44;93.84;97772.75;5084123;28;20031;-60
2020/12/17 10:35:01;;;;;;;22.65;11.98;;;;;;;4.85;94.59;97846.59;5083002;28;20616;-62
2020/12/17 10:37:26;;;;;;;22.50;10.95;;;;;;;5.60;92.84;97907.72;5085258;28;20032;-60
2020/12/17 10:39:53;;;;;;;61.30;32.63;;;;;;;5.42;91.56;97823.59;5091162;28;20035;-60
2020/12/17 10:42:18;;;;;;;32.38;17.10;;;;;;;5.92;89.22;97879.88;5085172;28;20081;-61
2020/12/17 10:44:44;;;;;;;29.50;16.35;;;;;;;6.15;89.89;97908.88;5082986;28;20028;-59
2020/12/17 10:47:09;;;;;;;23.90;12.88;;;;;;;6.06;87.81;97866.81;5082067;28;20074;-60
2020/12/17 10:49:35;;;;;;;19.48;11.48;;;;;;;5.99;88.47;97833.50;5097180;28;20082;-61
2020/12/17 10:52:01;;;;;;;20.20;11.45;;;;;;;6.39;85.99;97884.47;5083185;28;20887;-59
2020/12/17 10:54:28;;;;;;;16.85;9.75;;;;;;;6.25;86.57;97842.56;5081121;28;20037;-62
2020/12/17 10:56:54;;;;;;;22.85;11.07;;;;;;;6.58;86.15;97890.47;5080250;28;20491;-59
2020/12/17 10:59:19;;;;;;;24.52;12.82;;;;;;;6.62;86.34;97885.97;5064813;28;20064;-60
2020/12/17 11:01:44;;;;;;;20.17;12.18;;;;;;;6.28;85.75;97808.06;5079407;28;20522;-60
2020/12/17 11:04:10;;;;;;;27.73;15.35;;;;;;;6.78;84.79;97878.00;5083710;28;20020;-63
2020/12/17 11:06:35;;;;;;;22.23;12.43;;;;;;;6.89;83.91;97874.56;5082262;28;20119;-60
2020/12/17 11:09:02;;;;;;;28.50;14.63;;;;;;;6.85;83.68;97878.31;5074099;28;20042;-60
2020/12/17 11:11:27;;;;;;;24.20;13.43;;;;;;;6.05;84.32;97752.44;5083818;28;20039;-60
2020/12/17 11:13:53;;;;;;;25.77;14.35;;;;;;;6.83;84.58;97870.38;5084186;28;20040;-60
2020/12/17 11:16:19;;;;;;;30.15;15.10;;;;;;;6.56;84.12;97818.44;5083459;28;20096;-60
2020/12/17 11:18:45;;;;;;;30.08;16.27;;;;;;;6.91;85.07;97852.22;5084601;28;20137;-59
2020/12/17 11:21:10;;;;;;;28.60;15.95;;;;;;;6.73;83.77;97829.44;5084010;28;20070;-60
2020/12/17 11:23:36;;;;;;;27.10;16.20;;;;;;;6.74;84.68;97850.31;5084394;28;20370;-61
2020/12/17 11:26:03;;;;;;;29.63;17.02;;;;;;;6.94;84.16;97860.63;5084000;28;20092;-61
2020/12/17 11:28:29;;;;;;;31.00;18.70;;;;;;;7.03;84.21;97857.88;5083989;28;20040;-63